Schneifelwetter: Wetterstation Hallschlag, 537 m . NN
Wetterdaten: Montag, 15.03.2010
Datum Zeit Temp. A. Feuchte A. Luftdruck Regen Wind Richtung Richtung Sonnenschein Helligkeit T Regen Taupunkt Windchill
15.03.2010 00:01 1,3 C 97 % 1020 hPa 0,0 l/m 19,7 km/h (3 Bft) W22.5 270 0 min 0 lux 0,00 min 0,9 C -7,8 C
15.03.2010 00:16 1,3 C 97 % 1021 hPa 0,0 l/m 23,1 km/h (4 Bft) W22.5 260 0 min 0 lux 0,00 min 0,9 C -9,2 C
15.03.2010 00:31 1,3 C 97 % 1021 hPa 0,0 l/m 24,4 km/h (4 Bft) W45 275 0 min 0 lux 0,00 min 0,9 C -9,7 C
15.03.2010 00:46 1,3 C 97 % 1021 hPa 0,0 l/m 20,6 km/h (4 Bft) W22.5 265 0 min 0 lux 0,00 min 0,9 C -8,2 C
15.03.2010 01:01 1,3 C 97 % 1021 hPa 0,0 l/m 16,3 km/h (3 Bft) W22.5 270 0 min 0 lux 0,00 min 0,9 C -6,1 C
15.03.2010 01:16 1,3 C 97 % 1021 hPa 0,0 l/m 18,2 km/h (3 Bft) W22.5 265 0 min 0 lux 0,00 min 0,9 C -7,1 C
15.03.2010 01:31 1,3 C 97 % 1021 hPa 0,0 l/m 16,2 km/h (3 Bft) W45 265 0 min 0 lux 0,00 min 0,9 C -6,1 C
15.03.2010 01:46 1,3 C 97 % 1021 hPa 0,3 l/m 15,8 km/h (3 Bft) W22.5 270 0 min 0 lux 15,00 min 0,9 C -5,9 C
15.03.2010 02:01 1,3 C 97 % 1021 hPa 0,3 l/m 16,6 km/h (3 Bft) W45 275 0 min 0 lux 15,00 min 0,9 C -6,3 C
15.03.2010 02:16 1,2 C 96 % 1021 hPa 0,0 l/m 14,0 km/h (3 Bft) W-NW22.5 285 0 min 0 lux 0,00 min 0,6 C -4,9 C
15.03.2010 02:31 1,2 C 96 % 1021 hPa 0,0 l/m 7,0 km/h (2 Bft) W-NW 285 0 min 0 lux 0,00 min 0,6 C 0,6 C
15.03.2010 02:46 1,0 C 96 % 1021 hPa 0,3 l/m 8,0 km/h (2 Bft) W-NW22.5 300 0 min 0 lux 15,00 min 0,4 C -0,6 C
15.03.2010 03:01 0,8 C 96 % 1021 hPa 0,0 l/m 6,3 km/h (2 Bft) W 265 0 min 0 lux 0,00 min 0,2 C 0,8 C
15.03.2010 03:16 0,7 C 96 % 1021 hPa 0,3 l/m 10,8 km/h (2 Bft) W 265 0 min 0 lux 15,00 min 0,1 C -3,3 C
15.03.2010 03:31 0,5 C 96 % 1021 hPa 0,0 l/m 2,8 km/h (1 Bft) W 265 0 min 0 lux 0,00 min -0,1 C 0,5 C
15.03.2010 03:46 0,3 C 96 % 1021 hPa 0,0 l/m 4,5 km/h (1 Bft) W 265 0 min 0 lux 0,00 min -0,3 C 0,3 C
15.03.2010 04:01 0,2 C 96 % 1021 hPa 0,3 l/m 1,8 km/h (1 Bft) W 265 0 min 0 lux 15,00 min -0,4 C 0,2 C
15.03.2010 04:16 0,1 C 96 % 1021 hPa 0,0 l/m 4,6 km/h (1 Bft) W 265 0 min 0 lux 0,00 min -0,5 C 0,1 C
15.03.2010 04:31 0,2 C 96 % 1021 hPa 0,0 l/m 6,1 km/h (2 Bft) W 265 0 min 0 lux 0,00 min -0,4 C 0,2 C
15.03.2010 04:46 0,3 C 96 % 1021 hPa 0,3 l/m 8,4 km/h (2 Bft) W 265 0 min 0 lux 15,00 min -0,3 C -1,7 C
15.03.2010 05:01 0,3 C 96 % 1021 hPa 0,0 l/m 5,3 km/h (1 Bft) W 265 0 min 0 lux 0,00 min -0,3 C 0,3 C
15.03.2010 05:15 0,1 C 96 % 1021 hPa 0,0 l/m 5,7 km/h (1 Bft) W 265 0 min 0 lux 0,00 min -0,5 C 0,1 C
15.03.2010 05:30 0,1 C 96 % 1021 hPa 0,0 l/m 1,3 km/h (1 Bft) W 265 0 min 0 lux 0,00 min -0,5 C 0,1 C
15.03.2010 05:45 0,1 C 97 % 1021 hPa 0,3 l/m 5,7 km/h (1 Bft) W 265 0 min 0 lux 15,00 min -0,3 C 0,1 C
15.03.2010 06:00 0,1 C 97 % 1020 hPa 0,0 l/m 5,7 km/h (1 Bft) W 260 0 min 0 lux 0,00 min -0,3 C 0,1 C
15.03.2010 06:15 0,1 C 97 % 1021 hPa 0,0 l/m 4,3 km/h (1 Bft) W 260 0 min 0 lux 0,00 min -0,3 C 0,1 C
15.03.2010 06:30 0,1 C 97 % 1021 hPa 0,3 l/m 8,7 km/h (2 Bft) W 260 0 min 0 lux 15,00 min -0,3 C -2,2 C
15.03.2010 06:45 0,3 C 97 % 1021 hPa 0,0 l/m 6,0 km/h (2 Bft) W 260 0 min 84 lux 0,00 min -0,1 C 0,3 C
15.03.2010 07:00 0,4 C 97 % 1021 hPa 0,0 l/m 8,3 km/h (2 Bft) W 260 0 min 358 lux 0,00 min -0,0 C -1,5 C
15.03.2010 07:15 0,5 C 97 % 1021 hPa 0,3 l/m 8,5 km/h (2 Bft) W-SW22.5 250 0 min 427 lux 15,00 min 0,1 C -1,6 C
15.03.2010 07:30 0,6 C 98 % 1021 hPa 0,3 l/m 17,3 km/h (3 Bft) W22.5 265 0 min 2,22 klux 15,00 min 0,3 C -7,5 C
15.03.2010 07:45 0,7 C 98 % 1021 hPa 0,3 l/m 10,7 km/h (2 Bft) W22.5 275 0 min 2,37 klux 15,00 min 0,4 C -3,2 C
15.03.2010 08:00 0,9 C 98 % 1021 hPa 0,0 l/m 13,3 km/h (3 Bft) W45 270 0 min 4,28 klux 0,00 min 0,6 C -4,8 C
15.03.2010 08:16 1,1 C 98 % 1021 hPa 0,3 l/m 16,1 km/h (3 Bft) W45 275 0 min 5,12 klux 16,00 min 0,8 C -6,3 C
15.03.2010 08:31 1,2 C 98 % 1021 hPa 0,0 l/m 20,8 km/h (4 Bft) W22.5 270 0 min 5,04 klux 0,00 min 0,9 C -8,4 C
15.03.2010 08:46 1,5 C 97 % 1021 hPa 0,3 l/m 15,1 km/h (3 Bft) W22.5 275 0 min 11,7 klux 15,00 min 1,1 C -5,2 C
15.03.2010 09:01 1,6 C 97 % 1022 hPa 0,0 l/m 15,3 km/h (3 Bft) W 260 0 min 10,8 klux 0,00 min 1,2 C -5,2 C
15.03.2010 09:15 1,7 C 97 % 1022 hPa 0,0 l/m 11,3 km/h (2 Bft) W22.5 260 0 min 13,3 klux 0,00 min 1,3 C -2,6 C
15.03.2010 09:30 2,2 C 96 % 1022 hPa 0,0 l/m 15,7 km/h (3 Bft) W-NW22.5 285 0 min 13,9 klux 0,00 min 1,6 C -4,7 C
15.03.2010 09:46 2,3 C 94 % 1022 hPa 0,0 l/m 10,3 km/h (2 Bft) W22.5 260 0 min 13,7 klux 0,00 min 1,4 C -1,1 C
15.03.2010 10:01 2,5 C 94 % 1022 hPa 0,0 l/m 16,6 km/h (3 Bft) W22.5 280 0 min 13,2 klux 0,00 min 1,6 C -4,8 C
15.03.2010 10:16 2,5 C 94 % 1022 hPa 0,0 l/m 8,6 km/h (2 Bft) W-SW 250 0 min 10,3 klux 0,00 min 1,6 C 0,4 C
15.03.2010 10:31 2,5 C 94 % 1022 hPa 0,0 l/m 11,1 km/h (2 Bft) W-SW 255 0 min 9,4 klux 0,00 min 1,6 C -1,5 C
15.03.2010 10:46 2,5 C 94 % 1022 hPa 0,0 l/m 15,0 km/h (3 Bft) W22.5 260 0 min 11,4 klux 0,00 min 1,6 C -4,0 C
15.03.2010 11:01 2,7 C 93 % 1022 hPa 0,0 l/m 10,7 km/h (2 Bft) W22.5 275 0 min 12,9 klux 0,00 min 1,7 C -1,0 C
15.03.2010 11:15 2,9 C 93 % 1022 hPa 0,0 l/m 17,1 km/h (3 Bft) W22.5 260 14 min 27,2 klux 0,00 min 1,9 C -4,6 C
15.03.2010 11:30 4,0 C 93 % 1022 hPa 0,0 l/m 14,7 km/h (3 Bft) W22.5 270 15 min 38,0 klux 0,00 min 3,0 C -2,0 C
15.03.2010 11:46 4,1 C 92 % 1022 hPa 0,0 l/m 16,7 km/h (3 Bft) W22.5 260 0 min 18,4 klux 0,00 min 2,9 C -2,9 C
15.03.2010 12:01 4,1 C 91 % 1022 hPa 0,0 l/m 15,5 km/h (3 Bft) W-SW22.5 240 0 min 19,9 klux 0,00 min 2,8 C -2,3 C
15.03.2010 12:16 4,1 C 91 % 1022 hPa 0,0 l/m 15,1 km/h (3 Bft) W-SW 245 0 min 19,8 klux 0,00 min 2,8 C -2,1 C
15.03.2010 12:31 4,1 C 91 % 1022 hPa 0,0 l/m 16,4 km/h (3 Bft) SW22.5 235 0 min 19,1 klux 0,00 min 2,8 C -2,7 C
15.03.2010 12:46 4,3 C 92 % 1022 hPa 0,0 l/m 18,7 km/h (3 Bft) W-SW22.5 250 15 min 46,0 klux 0,00 min 3,1 C -3,5 C
15.03.2010 13:00 5,2 C 91 % 1022 hPa 0,0 l/m 26,3 km/h (4 Bft) W-SW22.5 255 14 min 34,2 klux 0,00 min 3,9 C -5,1 C
15.03.2010 13:15 5,6 C 90 % 1021 hPa 0,0 l/m 21,0 km/h (4 Bft) W-SW45 255 15 min 26,9 klux 0,00 min 4,1 C -2,8 C
15.03.2010 13:31 5,9 C 88 % 1021 hPa 0,0 l/m 19,1 km/h (3 Bft) W-SW22.5 255 16 min 27,3 klux 0,00 min 4,1 C -1,7 C
15.03.2010 13:46 6,1 C 88 % 1021 hPa 0,0 l/m 31,0 km/h (5 Bft) W-SW22.5 250 15 min 43,5 klux 0,00 min 4,3 C -5,1 C
15.03.2010 14:01 6,3 C 86 % 1021 hPa 0,0 l/m 32,4 km/h (5 Bft) W-SW45 255 15 min 28,8 klux 0,00 min 4,1 C -5,1 C
15.03.2010 14:16 6,4 C 87 % 1020 hPa 0,0 l/m 32,5 km/h (5 Bft) W-SW45 250 15 min 43,0 klux 0,00 min 4,4 C -5,0 C
15.03.2010 14:31 6,3 C 86 % 1020 hPa 0,0 l/m 27,6 km/h (4 Bft) W-SW22.5 255 15 min 29,0 klux 0,00 min 4,1 C -3,9 C
15.03.2010 14:45 6,2 C 86 % 1020 hPa 0,0 l/m 31,8 km/h (5 Bft) W-SW45 255 14 min 54,3 klux 0,00 min 4,0 C -5,1 C
15.03.2010 14:46 6,2 C 86 % 1020 hPa 0,0 l/m 31,8 km/h (5 Bft) W-SW45 255 1 min 54,3 klux 0,00 min 4,0 C -5,1 C
15.03.2010 15:01 6,2 C 86 % 1020 hPa 0,0 l/m 23,3 km/h (4 Bft) W22.5 260 0 min 26,2 klux 0,00 min 4,0 C -2,8 C
15.03.2010 15:16 6,1 C 86 % 1020 hPa 0,0 l/m 30,2 km/h (5 Bft) W-SW45 255 15 min 33,4 klux 0,00 min 3,9 C -4,9 C
15.03.2010 15:31 5,9 C 86 % 1020 hPa 0,0 l/m 23,3 km/h (4 Bft) W22.5 260 0 min 10,6 klux 0,00 min 3,7 C -3,2 C
15.03.2010 15:46 5,7 C 87 % 1020 hPa 0,0 l/m 21,8 km/h (4 Bft) W22.5 260 0 min 11,6 klux 0,00 min 3,7 C -2,9 C
15.03.2010 16:00 5,6 C 85 % 1020 hPa 0,0 l/m 17,5 km/h (3 Bft) W22.5 265 0 min 11,2 klux 0,00 min 3,3 C -1,4 C
15.03.2010 16:15 5,4 C 84 % 1020 hPa 0,0 l/m 22,0 km/h (4 Bft) W-SW22.5 255 0 min 7,17 klux 0,00 min 2,9 C -3,4 C
15.03.2010 16:31 5,2 C 85 % 1020 hPa 0,0 l/m 28,0 km/h (4 Bft) W22.5 265 0 min 10,1 klux 0,00 min 2,9 C -5,6 C
15.03.2010 16:46 4,8 C 86 % 1020 hPa 0,0 l/m 26,0 km/h (4 Bft) W22.5 265 0 min 8,58 klux 0,00 min 2,7 C -5,5 C
15.03.2010 17:01 4,5 C 87 % 1019 hPa 0,0 l/m 24,8 km/h (4 Bft) W22.5 260 0 min 4,92 klux 0,00 min 2,5 C -5,6 C
15.03.2010 17:16 4,4 C 88 % 1019 hPa 0,0 l/m 19,9 km/h (4 Bft) W-SW22.5 250 0 min 7,35 klux 0,00 min 2,6 C -3,9 C
15.03.2010 17:31 4,5 C 88 % 1019 hPa 0,0 l/m 21,1 km/h (4 Bft) W-SW45 255 0 min 7,69 klux 0,00 min 2,7 C -4,3 C
15.03.2010 17:45 4,3 C 88 % 1019 hPa 0,0 l/m 25,5 km/h (4 Bft) W22.5 270 0 min 4,52 klux 0,00 min 2,5 C -6,1 C
15.03.2010 18:00 4,2 C 88 % 1019 hPa 0,0 l/m 23,7 km/h (4 Bft) W-SW22.5 255 0 min 2,90 klux 0,00 min 2,4 C -5,6 C
15.03.2010 18:16 3,9 C 89 % 1019 hPa 0,0 l/m 21,3 km/h (4 Bft) W-SW22.5 250 0 min 1,79 klux 0,00 min 2,3 C -5,1 C
15.03.2010 18:31 3,6 C 90 % 1019 hPa 0,0 l/m 20,3 km/h (4 Bft) W-SW22.5 250 0 min 1,36 klux 0,00 min 2,1 C -5,1 C
15.03.2010 18:46 3,6 C 91 % 1019 hPa 0,0 l/m 23,8 km/h (4 Bft) W-SW22.5 255 0 min 283 lux 0,00 min 2,3 C -6,4 C
15.03.2010 19:01 3,4 C 91 % 1019 hPa 0,0 l/m 20,0 km/h (4 Bft) W-SW22.5 255 0 min 87 lux 0,00 min 2,1 C -5,2 C
15.03.2010 19:16 3,3 C 91 % 1019 hPa 0,0 l/m 25,0 km/h (4 Bft) W-SW45 255 0 min 12 lux 0,00 min 2,0 C -7,2 C
15.03.2010 19:30 3,3 C 91 % 1019 hPa 0,0 l/m 20,5 km/h (4 Bft) W-SW22.5 250 0 min 0 lux 0,00 min 2,0 C -5,6 C
15.03.2010 19:45 3,3 C 92 % 1019 hPa 0,0 l/m 32,2 km/h (5 Bft) W45 265 0 min 0 lux 0,00 min 2,1 C -9,3 C
15.03.2010 20:01 3,3 C 91 % 1019 hPa 0,0 l/m 31,0 km/h (5 Bft) W45 265 0 min 0 lux 0,00 min 2,0 C -9,0 C
15.03.2010 20:16 3,2 C 91 % 1019 hPa 0,0 l/m 17,7 km/h (3 Bft) W22.5 260 0 min 0 lux 0,00 min 1,9 C -4,5 C
15.03.2010 20:31 3,2 C 91 % 1019 hPa 0,0 l/m 26,1 km/h (4 Bft) W22.5 265 0 min 0 lux 0,00 min 1,9 C -7,7 C
15.03.2010 20:46 3,1 C 92 % 1019 hPa 0,6 l/m 15,2 km/h (3 Bft) W-SW22.5 255 0 min 0 lux 15,00 min 1,9 C -3,3 C
15.03.2010 21:00 3,2 C 91 % 1019 hPa 0,0 l/m 27,6 km/h (4 Bft) W22.5 265 0 min 0 lux 0,00 min 1,9 C -8,2 C
15.03.2010 21:15 3,2 C 91 % 1019 hPa 0,0 l/m 26,5 km/h (4 Bft) W22.5 265 0 min 0 lux 0,00 min 1,9 C -7,9 C
15.03.2010 21:31 3,2 C 90 % 1019 hPa 0,0 l/m 30,4 km/h (5 Bft) W22.5 260 0 min 0 lux 0,00 min 1,7 C -9,0 C
15.03.2010 21:46 3,2 C 89 % 1018 hPa 0,0 l/m 30,2 km/h (5 Bft) W22.5 260 0 min 0 lux 0,00 min 1,6 C -9,0 C
15.03.2010 22:01 3,2 C 90 % 1018 hPa 0,0 l/m 28,0 km/h (4 Bft) W22.5 265 0 min 0 lux 0,00 min 1,7 C -8,3 C
15.03.2010 22:16 3,2 C 90 % 1019 hPa 0,0 l/m 30,1 km/h (5 Bft) W45 260 0 min 0 lux 0,00 min 1,7 C -8,9 C
15.03.2010 22:31 3,1 C 91 % 1019 hPa 0,0 l/m 27,8 km/h (4 Bft) W45 260 0 min 0 lux 0,00 min 1,8 C -8,4 C
15.03.2010 22:45 2,9 C 91 % 1019 hPa 0,0 l/m 29,1 km/h (5 Bft) W22.5 260 0 min 0 lux 0,00 min 1,6 C -9,1 C
15.03.2010 23:00 2,7 C 92 % 1019 hPa 0,0 l/m 19,1 km/h (3 Bft) W22.5 270 0 min 0 lux 0,00 min 1,5 C -5,7 C
15.03.2010 23:16 2,6 C 93 % 1019 hPa 0,0 l/m 13,8 km/h (3 Bft) W22.5 270 0 min 0 lux 0,00 min 1,6 C -3,1 C
15.03.2010 23:31 2,4 C 94 % 1019 hPa 0,0 l/m 19,6 km/h (3 Bft) W45 270 0 min 0 lux 0,00 min 1,5 C -6,4 C
15.03.2010 23:46 2,3 C 94 % 1019 hPa 0,0 l/m 16,1 km/h (3 Bft) W22.5 275 0 min 0 lux 0,00 min 1,4 C -4,8 C
_ Min-Zeit 04:16 16:15 21:46 - 05:30 - - - - - 04:16 00:31
Minimum _ 0,1 C 84 % 1018 hPa - 1,3 km/h (1 Bft) - - - - - -0,5 C -9,7 C
_ Max-Zeit 14:16 07:30 09:01 20:46 14:16 - - 13:31 14:45 08:16 14:16 03:01
Maximum _ 6,4 C 98 % 1022 hPa 0,6 l/m 32,5 km/h
W-SW (5 Bft)
- - 16 min 54,3 klux 16,00 min 4,4 C 0,8 C
Durchschnitt _ 2,8 C 93 % 1021 hPa #4,5 l/m 17,9 km/h (3 Bft) W - #2:59 h 8,45 klux #3:31 h 1,7 C -4,2 C